createdAt,value
2023-05-19T00:01:00.678Z,100740.91
2023-05-19T00:03:30.962Z,100741.78
2023-05-19T00:05:59.385Z,100742.00
2023-05-19T00:08:32.912Z,100741.84
2023-05-19T00:11:03.232Z,100738.28
2023-05-19T00:13:31.623Z,100739.16
2023-05-19T00:16:01.714Z,100739.47
2023-05-19T00:18:30.710Z,100739.47
2023-05-19T00:20:59.091Z,100740.53
2023-05-19T00:23:27.195Z,100734.22
2023-05-19T00:25:54.954Z,100746.16
2023-05-19T00:28:24.663Z,100745.63
2023-05-19T00:30:56.422Z,100744.78
2023-05-19T00:33:24.720Z,100751.41
2023-05-19T00:35:52.813Z,100755.47
2023-05-19T00:38:21.746Z,100758.22
2023-05-19T00:40:50.380Z,100757.16
2023-05-19T00:43:18.539Z,100757.16
2023-05-19T00:45:47.571Z,100753.81
2023-05-19T00:48:16.390Z,100763.72
2023-05-19T00:50:54.153Z,100756.19
2023-05-19T00:53:33.263Z,100755.69
2023-05-19T00:56:02.568Z,100757.94
2023-05-19T00:58:33.060Z,100755.34
2023-05-19T01:01:05.388Z,100756.19
2023-05-19T01:03:36.763Z,100754.00
2023-05-19T01:06:05.615Z,100750.41
2023-05-19T01:08:38.227Z,100751.25
2023-05-19T01:11:08.382Z,100749.38
2023-05-19T01:13:37.837Z,100745.09
2023-05-19T01:16:21.987Z,100745.41
2023-05-19T01:19:25.809Z,100738.91
2023-05-19T01:22:13.441Z,100736.00
2023-05-19T01:25:07.945Z,100747.19
2023-05-19T01:27:51.584Z,100746.28
2023-05-19T01:30:26.799Z,100748.31
2023-05-19T01:32:59.635Z,100749.56
2023-05-19T01:35:29.519Z,100743.22
2023-05-19T01:38:00.017Z,100747.22
2023-05-19T01:40:29.367Z,100744.28
2023-05-19T01:42:59.379Z,100741.91
2023-05-19T01:45:29.942Z,100740.28
2023-05-19T01:48:01.729Z,100750.94
2023-05-19T01:50:31.033Z,100742.41
2023-05-19T01:53:00.283Z,100751.50
2023-05-19T01:55:29.110Z,100750.97
2023-05-19T01:58:07.763Z,100750.66
2023-05-19T02:00:35.906Z,100754.22
2023-05-19T02:03:13.366Z,100754.22
2023-05-19T02:06:17.549Z,100757.81
2023-05-19T02:08:48.468Z,100770.16
2023-05-19T02:11:23.743Z,100757.69
2023-05-19T02:13:55.192Z,100755.94
2023-05-19T02:16:29.487Z,100761.94
2023-05-19T02:18:59.752Z,100767.03
2023-05-19T02:21:27.727Z,100767.03
2023-05-19T02:23:55.819Z,100771.16
2023-05-19T02:26:24.088Z,100768.03
2023-05-19T02:28:53.054Z,100762.31
2023-05-19T02:31:24.165Z,100771.81
2023-05-19T02:33:52.757Z,100768.03
2023-05-19T02:36:21.039Z,100763.84
2023-05-19T02:38:49.079Z,100775.22
2023-05-19T02:41:17.457Z,100773.44
2023-05-19T02:43:46.133Z,100767.50
2023-05-19T02:46:16.220Z,100778.47
2023-05-19T02:48:44.440Z,100779.25
2023-05-19T02:51:14.665Z,100771.69
2023-05-19T02:53:42.803Z,100776.25
2023-05-19T02:56:10.904Z,100777.63
2023-05-19T02:58:39.716Z,100789.25
2023-05-19T03:01:08.036Z,100786.34
2023-05-19T03:03:36.854Z,100785.31
2023-05-19T03:06:08.990Z,100788.44
2023-05-19T03:08:37.100Z,100787.78
2023-05-19T03:11:06.611Z,100794.16
2023-05-19T03:13:39.354Z,100794.75
2023-05-19T03:16:08.612Z,100796.84
2023-05-19T03:18:38.635Z,100797.13
2023-05-19T03:21:07.086Z,100797.97
2023-05-19T03:23:35.592Z,100797.66
2023-05-19T03:26:04.113Z,100804.25
2023-05-19T03:28:32.340Z,100806.47
2023-05-19T03:31:00.569Z,100802.59
2023-05-19T03:33:30.219Z,100798.75
2023-05-19T03:35:59.295Z,100808.91
2023-05-19T03:38:27.752Z,100804.84
2023-05-19T03:40:56.796Z,100815.06
2023-05-19T03:43:25.979Z,100815.88
2023-05-19T03:45:54.370Z,100816.50
2023-05-19T03:48:23.153Z,100811.38
2023-05-19T03:50:51.666Z,100807.63
2023-05-19T03:53:21.953Z,100807.78
2023-05-19T03:55:50.985Z,100809.25
2023-05-19T03:58:20.379Z,100813.19
2023-05-19T04:00:48.753Z,100809.09
2023-05-19T04:03:16.955Z,100813.28
2023-05-19T04:05:45.273Z,100812.13
2023-05-19T04:08:13.494Z,100808.50
2023-05-19T04:10:42.017Z,100813.09
2023-05-19T04:13:10.156Z,100816.97
2023-05-19T04:15:38.237Z,100822.28
2023-05-19T04:18:06.725Z,100821.88
2023-05-19T04:20:35.406Z,100825.47
2023-05-19T04:23:04.215Z,100815.91
2023-05-19T04:25:32.422Z,100823.94
2023-05-19T04:28:01.322Z,100822.59
2023-05-19T04:30:29.570Z,100829.31
2023-05-19T04:33:01.525Z,100822.63
2023-05-19T04:35:29.830Z,100817.94
2023-05-19T04:37:58.590Z,100817.00
2023-05-19T04:40:27.307Z,100816.09
2023-05-19T04:42:55.512Z,100822.31
2023-05-19T04:45:27.185Z,100818.09
2023-05-19T04:47:58.481Z,100805.81
2023-05-19T04:50:26.542Z,100810.31
2023-05-19T04:52:54.661Z,100811.38
2023-05-19T04:55:23.576Z,100814.06
2023-05-19T04:57:54.045Z,100809.44
2023-05-19T05:00:25.694Z,100813.81
2023-05-19T05:02:54.112Z,100819.28
2023-05-19T05:05:22.937Z,100817.44
2023-05-19T05:07:54.543Z,100821.09
2023-05-19T05:10:23.462Z,100819.97
2023-05-19T05:12:53.382Z,100811.38
2023-05-19T05:15:22.386Z,100815.09
2023-05-19T05:17:51.631Z,100812.59
2023-05-19T05:20:21.219Z,100812.63
2023-05-19T05:22:49.935Z,100819.69
2023-05-19T05:25:18.716Z,100815.13
2023-05-19T05:27:47.052Z,100822.56
2023-05-19T05:30:15.187Z,100820.09
2023-05-19T05:32:44.331Z,100818.22
2023-05-19T05:35:16.532Z,100818.06
2023-05-19T05:37:44.789Z,100827.28
2023-05-19T05:40:13.433Z,100826.06
2023-05-19T05:42:41.951Z,100831.81
2023-05-19T05:45:11.383Z,100823.91
2023-05-19T05:47:42.318Z,100826.78
2023-05-19T05:50:12.103Z,100826.41
2023-05-19T05:52:42.112Z,100828.47
2023-05-19T05:55:11.484Z,100824.81
2023-05-19T05:57:42.547Z,100831.56
2023-05-19T06:00:16.077Z,100835.25
2023-05-19T06:02:49.665Z,100841.16
2023-05-19T06:05:18.963Z,100846.03
2023-05-19T06:07:48.116Z,100835.91
2023-05-19T06:10:17.351Z,100848.28
2023-05-19T06:12:45.846Z,100846.44
2023-05-19T06:15:14.202Z,100845.53
2023-05-19T06:17:42.571Z,100842.13
2023-05-19T06:20:11.132Z,100833.03
2023-05-19T06:22:40.023Z,100843.25
2023-05-19T06:25:09.277Z,100844.31
2023-05-19T06:27:37.867Z,100829.25
2023-05-19T06:30:09.213Z,100834.16
2023-05-19T06:32:41.374Z,100839.41
2023-05-19T06:35:10.333Z,100845.06
2023-05-19T06:37:38.862Z,100838.84
2023-05-19T06:40:08.586Z,100836.84
2023-05-19T06:42:36.762Z,100836.94
2023-05-19T06:45:05.587Z,100839.06
2023-05-19T06:47:34.369Z,100834.41
2023-05-19T06:50:02.380Z,100835.78
2023-05-19T06:52:31.309Z,100839.94
2023-05-19T06:54:59.522Z,100845.81
2023-05-19T06:57:27.724Z,100842.09
2023-05-19T06:59:55.747Z,100848.03
2023-05-19T07:02:24.457Z,100835.66
2023-05-19T07:04:54.283Z,100846.91
2023-05-19T07:07:22.970Z,100841.06
2023-05-19T07:09:50.852Z,100845.13
2023-05-19T07:12:18.872Z,100846.22
2023-05-19T07:14:46.738Z,100849.00
2023-05-19T07:17:16.060Z,100838.34
2023-05-19T07:19:44.360Z,100834.91
2023-05-19T07:22:12.759Z,100843.31
2023-05-19T07:24:41.619Z,100846.13
2023-05-19T07:27:10.574Z,100850.63
2023-05-19T07:29:40.416Z,100846.91
2023-05-19T07:32:08.691Z,100840.59
2023-05-19T07:34:45.685Z,100841.25
2023-05-19T07:37:14.035Z,100844.25
2023-05-19T07:39:42.329Z,100842.75
2023-05-19T07:42:10.581Z,100836.16
2023-05-19T07:44:38.899Z,100838.72
2023-05-19T07:47:07.248Z,100831.94
2023-05-19T07:49:35.345Z,100833.63
2023-05-19T07:52:06.217Z,100831.09
2023-05-19T07:54:34.662Z,100842.34
2023-05-19T07:57:02.909Z,100827.50
2023-05-19T07:59:31.281Z,100825.16
2023-05-19T08:01:59.782Z,100826.44
2023-05-19T08:04:30.758Z,100838.50
2023-05-19T08:07:02.464Z,100818.94
2023-05-19T08:09:31.074Z,100828.25
2023-05-19T08:11:59.401Z,100826.09
2023-05-19T08:14:28.349Z,100816.13
2023-05-19T08:17:02.343Z,100816.97
2023-05-19T08:19:30.627Z,100813.97
2023-05-19T08:22:01.677Z,100821.81
2023-05-19T08:24:30.543Z,100811.75
2023-05-19T08:26:58.920Z,100805.84
2023-05-19T08:29:27.508Z,100805.38
2023-05-19T08:31:56.555Z,100808.09
2023-05-19T08:34:25.247Z,100803.56
2023-05-19T08:36:53.810Z,100806.78
2023-05-19T08:39:27.070Z,100809.38
2023-05-19T08:41:55.263Z,100801.94
2023-05-19T08:44:23.970Z,100814.34
2023-05-19T08:46:55.616Z,100794.88
2023-05-19T08:49:28.843Z,100806.19
2023-05-19T08:52:16.169Z,100798.94
2023-05-19T08:54:49.098Z,100800.84
2023-05-19T08:57:18.038Z,100784.19
2023-05-19T08:59:46.594Z,100791.84
2023-05-19T09:02:15.070Z,100792.66
2023-05-19T09:04:46.399Z,100781.72
2023-05-19T09:07:16.091Z,100797.09
2023-05-19T09:09:46.754Z,100790.75
2023-05-19T09:12:15.011Z,100787.88
2023-05-19T09:14:43.771Z,100774.38
2023-05-19T09:17:12.515Z,100779.63
2023-05-19T09:19:44.774Z,100786.31
2023-05-19T09:22:17.395Z,100783.78
2023-05-19T09:24:49.205Z,100778.34
2023-05-19T09:27:27.812Z,100782.56
2023-05-19T09:29:57.151Z,100772.59
2023-05-19T09:32:29.112Z,100776.72
2023-05-19T09:35:00.318Z,100768.88
2023-05-19T09:37:29.294Z,100770.91
2023-05-19T09:39:57.609Z,100772.94
2023-05-19T09:42:27.336Z,100802.38
2023-05-19T09:45:05.414Z,100781.53
2023-05-19T09:47:44.196Z,100783.47
2023-05-19T09:50:14.544Z,100782.72
2023-05-19T09:52:45.938Z,100791.03
2023-05-19T09:55:14.598Z,100787.09
2023-05-19T09:57:42.704Z,100786.34
2023-05-19T10:00:15.096Z,100784.78
2023-05-19T10:02:46.719Z,100790.59
2023-05-19T10:05:20.923Z,100795.28
2023-05-19T10:07:55.146Z,100818.06
2023-05-19T10:10:24.056Z,100775.38
2023-05-19T10:12:55.111Z,100794.63
2023-05-19T10:15:23.484Z,100789.78
2023-05-19T10:17:51.901Z,100782.88
2023-05-19T10:20:20.108Z,100785.31
2023-05-19T10:22:49.232Z,100769.84
2023-05-19T10:25:20.247Z,100765.41
2023-05-19T10:27:57.484Z,100768.00
2023-05-19T10:30:42.394Z,100772.56
2023-05-19T10:33:17.704Z,100768.31
2023-05-19T10:36:23.385Z,100773.66
2023-05-19T10:39:01.680Z,100758.81
2023-05-19T10:41:44.994Z,100747.75
2023-05-19T10:44:28.038Z,100757.28
2023-05-19T10:47:00.206Z,100751.13
2023-05-19T10:49:28.904Z,100753.53
2023-05-19T10:51:57.516Z,100753.75
2023-05-19T10:54:47.281Z,100755.81
2023-05-19T10:57:17.146Z,100767.66
2023-05-19T10:59:45.294Z,100758.81
2023-05-19T11:02:42.607Z,100762.03
2023-05-19T11:05:14.918Z,100752.63
2023-05-19T11:07:45.245Z,100760.44
2023-05-19T11:10:14.033Z,100752.38
2023-05-19T11:12:44.985Z,100753.47
2023-05-19T11:15:17.364Z,100751.34
2023-05-19T11:17:50.051Z,100753.16
2023-05-19T11:20:25.091Z,100755.63
2023-05-19T11:23:07.360Z,100750.69
2023-05-19T11:25:50.226Z,100747.97
2023-05-19T11:28:20.178Z,100739.03
2023-05-19T11:30:52.910Z,100744.66
2023-05-19T11:33:21.994Z,100762.31
2023-05-19T11:35:52.077Z,100768.59
2023-05-19T11:38:24.269Z,100757.59
2023-05-19T11:40:56.314Z,100753.41
2023-05-19T11:43:25.269Z,100760.44
2023-05-19T11:45:55.565Z,100755.84
2023-05-19T11:48:25.366Z,100753.59
2023-05-19T11:50:53.739Z,100752.78
2023-05-19T11:53:24.766Z,100747.94
2023-05-19T11:55:53.645Z,100745.75
2023-05-19T11:58:26.905Z,100756.50
2023-05-19T12:00:55.440Z,100766.59
2023-05-19T12:03:28.788Z,100759.63
2023-05-19T12:05:57.810Z,100755.00
2023-05-19T12:08:27.866Z,100756.78
2023-05-19T12:10:56.788Z,100770.22
2023-05-19T12:13:26.814Z,100761.06
2023-05-19T12:15:58.817Z,100759.53
2023-05-19T12:18:30.978Z,100758.19
2023-05-19T12:20:59.392Z,100752.22
2023-05-19T12:23:30.933Z,100751.81
2023-05-19T12:26:02.262Z,100745.22
2023-05-19T12:28:32.005Z,100755.41
2023-05-19T12:31:03.536Z,100780.25
2023-05-19T12:33:35.749Z,100745.00
2023-05-19T12:36:06.108Z,100746.16
2023-05-19T12:38:37.989Z,100741.25
2023-05-19T12:41:07.398Z,100747.16
2023-05-19T12:43:35.959Z,100741.22
2023-05-19T12:46:14.196Z,100743.72
2023-05-19T13:01:37.063Z,100730.84
2023-05-19T13:04:12.622Z,100734.00
2023-05-19T13:06:44.160Z,100735.91
2023-05-19T13:09:22.184Z,100738.69
2023-05-19T13:11:52.367Z,100726.50
2023-05-19T13:14:21.178Z,100747.34
2023-05-19T13:16:49.638Z,100739.69
2023-05-19T13:21:51.708Z,100745.81
2023-05-19T13:24:19.841Z,100741.22
2023-05-19T13:26:48.538Z,100744.06
2023-05-19T13:29:16.671Z,100734.16
2023-05-19T13:31:45.098Z,100741.84
2023-05-19T13:34:17.515Z,100745.59
2023-05-19T13:36:49.041Z,100745.47
2023-05-19T13:39:19.175Z,100745.03
2023-05-19T13:41:51.824Z,100753.84
2023-05-19T13:44:20.824Z,100750.69
2023-05-19T13:47:01.379Z,100754.44
2023-05-19T13:49:30.255Z,100755.88
2023-05-19T13:51:59.978Z,100766.56
2023-05-19T13:54:28.521Z,100759.97
2023-05-19T13:56:56.524Z,100765.91
2023-05-19T13:59:27.321Z,100754.84
2023-05-19T14:01:55.966Z,100769.94
2023-05-19T14:04:25.139Z,100754.69
2023-05-19T14:06:54.138Z,100757.22
2023-05-19T14:09:23.133Z,100762.03
2023-05-19T14:11:51.643Z,100769.72
2023-05-19T14:14:20.277Z,100772.63
2023-05-19T14:16:49.234Z,100769.03
2023-05-19T14:19:18.082Z,100760.94
2023-05-19T14:21:46.756Z,100763.50
2023-05-19T14:24:15.912Z,100764.53
2023-05-19T14:26:44.452Z,100764.25
2023-05-19T14:29:12.992Z,100767.81
2023-05-19T14:31:41.305Z,100764.66
2023-05-19T14:34:10.170Z,100762.59
2023-05-19T14:36:38.923Z,100763.44
2023-05-19T14:39:07.181Z,100765.84
2023-05-19T14:41:37.055Z,100753.94
2023-05-19T14:44:05.917Z,100766.09
2023-05-19T14:46:34.969Z,100761.69
2023-05-19T14:49:06.203Z,100773.03
2023-05-19T14:51:38.500Z,100767.34
2023-05-19T14:54:09.261Z,100769.50
2023-05-19T14:56:38.385Z,100771.41
2023-05-19T14:59:09.449Z,100766.91
2023-05-19T15:01:38.078Z,100760.75
2023-05-19T15:04:07.038Z,100753.84
2023-05-19T15:06:36.298Z,100759.13
2023-05-19T15:09:08.482Z,100770.97
2023-05-19T15:11:37.228Z,100759.44
2023-05-19T15:14:06.627Z,100758.13
2023-05-19T15:16:35.165Z,100770.50
2023-05-19T15:19:03.435Z,100760.91
2023-05-19T15:21:31.797Z,100767.75
2023-05-19T15:24:00.133Z,100763.47
2023-05-19T15:26:34.003Z,100769.53
2023-05-19T15:29:02.852Z,100776.38
2023-05-19T15:31:31.599Z,100776.03
2023-05-19T15:33:59.892Z,100783.25
2023-05-19T15:36:28.414Z,100783.91
2023-05-19T15:38:56.375Z,100780.41
2023-05-19T15:41:24.873Z,100780.50
2023-05-19T15:43:55.937Z,100785.69
2023-05-19T15:46:24.591Z,100796.63
2023-05-19T15:48:53.651Z,100790.72
2023-05-19T15:51:22.811Z,100804.25
2023-05-19T15:53:51.317Z,100797.69
2023-05-19T15:56:20.455Z,100791.34
2023-05-19T15:58:48.768Z,100803.47
2023-05-19T16:01:21.403Z,100799.66
2023-05-19T16:03:52.827Z,100798.38
2023-05-19T16:06:21.622Z,100799.66
2023-05-19T16:08:49.927Z,100811.56
2023-05-19T16:11:21.663Z,100808.38
2023-05-19T16:13:50.477Z,100808.38
2023-05-19T16:16:19.166Z,100804.97
2023-05-19T16:18:47.437Z,100817.53
2023-05-19T16:21:15.568Z,100823.69
2023-05-19T16:23:44.040Z,100819.03
2023-05-19T16:26:12.241Z,100821.38
2023-05-19T16:28:41.528Z,100821.59
2023-05-19T16:31:14.378Z,100819.47
2023-05-19T16:33:42.975Z,100826.69
2023-05-19T16:36:14.133Z,100830.09
2023-05-19T16:38:45.756Z,100826.00
2023-05-19T16:41:14.140Z,100838.09
2023-05-19T16:43:42.588Z,100838.91
2023-05-19T16:46:12.732Z,100834.03
2023-05-19T16:48:41.240Z,100839.91
2023-05-19T16:51:11.183Z,100829.22
2023-05-19T16:53:41.118Z,100841.03
2023-05-19T16:56:09.506Z,100836.56
2023-05-19T16:58:38.333Z,100840.50
2023-05-19T17:01:16.511Z,100837.28
2023-05-19T17:03:45.383Z,100833.50
2023-05-19T17:06:14.147Z,100836.44
2023-05-19T17:08:43.028Z,100838.47
2023-05-19T17:11:11.158Z,100845.19
2023-05-19T17:13:44.235Z,100849.28
2023-05-19T17:16:14.539Z,100851.34
2023-05-19T17:18:43.983Z,100847.38
2023-05-19T17:21:12.909Z,100847.75
2023-05-19T17:23:41.260Z,100850.72
2023-05-19T17:26:09.475Z,100852.88
2023-05-19T17:28:38.380Z,100858.50
2023-05-19T17:31:15.136Z,100855.84
2023-05-19T17:33:44.362Z,100862.09
2023-05-19T17:36:12.936Z,100863.22
2023-05-19T17:38:42.323Z,100859.53
2023-05-19T17:41:11.013Z,100865.31
2023-05-19T17:43:40.954Z,100871.38
2023-05-19T17:46:09.740Z,100874.97
2023-05-19T17:48:38.369Z,100871.09
2023-05-19T17:51:09.678Z,100877.66
2023-05-19T17:53:39.199Z,100875.09
2023-05-19T17:56:10.179Z,100876.09
2023-05-19T17:58:39.179Z,100879.09
2023-05-19T18:01:07.738Z,100874.03
2023-05-19T18:03:36.682Z,100874.09
2023-05-19T18:06:05.922Z,100874.81
2023-05-19T18:08:34.368Z,100884.97
2023-05-19T18:11:04.253Z,100875.78
2023-05-19T18:13:32.573Z,100882.94
2023-05-19T18:16:00.727Z,100880.56
2023-05-19T18:18:29.122Z,100882.84
2023-05-19T18:20:57.690Z,100891.91
2023-05-19T18:23:26.362Z,100890.84
2023-05-19T18:25:54.579Z,100888.97
2023-05-19T18:28:26.514Z,100888.34
2023-05-19T18:31:02.052Z,100881.34
2023-05-19T18:33:32.152Z,100887.03
2023-05-19T18:36:00.680Z,100882.09
2023-05-19T18:38:29.055Z,100882.78
2023-05-19T18:40:57.081Z,100890.09
2023-05-19T18:43:25.870Z,100887.22
2023-05-19T18:45:54.591Z,100887.84
2023-05-19T18:48:24.869Z,100889.06
2023-05-19T18:50:53.508Z,100890.25
2023-05-19T18:53:23.003Z,100887.88
2023-05-19T18:55:51.259Z,100883.78
2023-05-19T18:58:19.741Z,100895.38
2023-05-19T19:00:48.697Z,100891.09
2023-05-19T19:03:18.278Z,100892.63
2023-05-19T19:05:46.711Z,100905.78
2023-05-19T19:08:15.363Z,100906.47
2023-05-19T19:10:43.702Z,100905.59
2023-05-19T19:13:11.877Z,100901.13
2023-05-19T19:15:40.164Z,100906.75
2023-05-19T19:18:08.904Z,100898.22
2023-05-19T19:20:37.249Z,100903.66
2023-05-19T19:23:07.088Z,100900.59
2023-05-19T19:25:38.816Z,100900.03
2023-05-19T19:28:07.801Z,100901.00
2023-05-19T19:30:36.672Z,100899.06
2023-05-19T19:33:06.658Z,100897.16
2023-05-19T19:35:37.993Z,100898.13
2023-05-19T19:38:05.954Z,100898.13
2023-05-19T19:40:34.426Z,100892.16
2023-05-19T19:43:08.492Z,100894.50
2023-05-19T19:45:39.496Z,100895.94
2023-05-19T19:48:07.927Z,100894.34
2023-05-19T19:50:36.766Z,100897.78
2023-05-19T19:53:05.161Z,100891.91
2023-05-19T19:55:33.652Z,100898.72
2023-05-19T19:58:02.667Z,100906.53
2023-05-19T20:00:31.188Z,100907.69
2023-05-19T20:05:31.105Z,100900.63
2023-05-19T20:07:59.242Z,100905.72
2023-05-19T20:10:27.828Z,100909.13
2023-05-19T20:12:56.577Z,100901.66
2023-05-19T20:15:25.147Z,100907.91
2023-05-19T20:17:53.623Z,100916.75
2023-05-19T20:20:22.226Z,100905.50
2023-05-19T20:22:51.260Z,100914.03
2023-05-19T20:25:19.808Z,100914.84
2023-05-19T20:27:48.120Z,100923.44
2023-05-19T20:30:16.887Z,100921.50
2023-05-19T20:32:47.266Z,100922.69
2023-05-19T20:35:16.378Z,100928.94
2023-05-19T20:37:44.542Z,100928.06
2023-05-19T20:40:13.310Z,100930.44
2023-05-19T20:42:41.894Z,100934.13
2023-05-19T20:45:10.526Z,100920.28
2023-05-19T20:47:40.208Z,100930.81
2023-05-19T20:50:09.925Z,100933.59
2023-05-19T20:52:38.879Z,100927.91
2023-05-19T20:55:07.528Z,100920.75
2023-05-19T20:57:35.904Z,100924.97
2023-05-19T21:00:05.394Z,100915.94
2023-05-19T21:02:34.608Z,100918.50
2023-05-19T21:05:04.030Z,100919.94
2023-05-19T21:07:33.154Z,100924.41
2023-05-19T21:10:01.957Z,100929.09
2023-05-19T21:12:34.580Z,100926.13
2023-05-19T21:15:04.073Z,100921.56
2023-05-19T21:17:33.779Z,100922.53
2023-05-19T21:20:02.373Z,100920.00
2023-05-19T21:22:31.125Z,100922.16
2023-05-19T21:24:59.614Z,100921.22
2023-05-19T21:27:27.961Z,100911.13
2023-05-19T21:29:56.424Z,100917.25
2023-05-19T21:32:25.077Z,100916.03
2023-05-19T21:34:53.504Z,100919.44
2023-05-19T21:37:22.247Z,100928.19
2023-05-19T21:39:51.039Z,100925.56
2023-05-19T21:42:22.389Z,100933.88
2023-05-19T21:44:51.257Z,100924.25
2023-05-19T21:47:19.688Z,100928.66
2023-05-19T21:49:47.933Z,100941.81
2023-05-19T21:52:15.994Z,100934.19
2023-05-19T21:54:44.427Z,100934.09
2023-05-19T21:57:12.868Z,100939.03
2023-05-19T21:59:41.308Z,100931.44
2023-05-19T22:02:10.701Z,100936.97
2023-05-19T22:04:39.187Z,100937.50
2023-05-19T22:07:07.661Z,100934.16
2023-05-19T22:09:36.966Z,100939.16
2023-05-19T22:12:06.343Z,100932.47
2023-05-19T22:14:34.503Z,100936.34
2023-05-19T22:17:06.787Z,100947.22
2023-05-19T22:19:36.023Z,100939.50
2023-05-19T22:22:12.984Z,100939.91
2023-05-19T22:24:43.194Z,100930.66
2023-05-19T22:27:11.339Z,100933.13
2023-05-19T22:29:40.871Z,100935.13
2023-05-19T22:32:12.436Z,100942.56
2023-05-19T22:34:40.476Z,100939.44
2023-05-19T22:37:08.607Z,100938.31
2023-05-19T22:39:37.716Z,100935.72
2023-05-19T22:42:06.329Z,100928.88
2023-05-19T22:44:34.838Z,100937.19
2023-05-19T22:47:03.346Z,100943.91
2023-05-19T22:49:31.407Z,100945.81
2023-05-19T22:51:59.945Z,100936.69
2023-05-19T22:54:28.425Z,100941.81
2023-05-19T22:56:56.526Z,100936.41
2023-05-19T22:59:25.507Z,100948.13
2023-05-19T23:01:54.143Z,100945.09
2023-05-19T23:04:22.107Z,100944.41
2023-05-19T23:06:51.457Z,100942.13
2023-05-19T23:09:19.530Z,100942.81
2023-05-19T23:11:48.446Z,100944.25
2023-05-19T23:14:18.801Z,100949.41
2023-05-19T23:16:47.301Z,100943.81
2023-05-19T23:19:17.539Z,100944.25
2023-05-19T23:21:48.877Z,100938.72
2023-05-19T23:24:17.950Z,100942.41
2023-05-19T23:26:46.594Z,100947.97
2023-05-19T23:29:15.333Z,100945.41
2023-05-19T23:31:44.879Z,100950.28
2023-05-19T23:34:13.365Z,100953.84
2023-05-19T23:36:42.677Z,100953.13
2023-05-19T23:39:11.725Z,100950.50
2023-05-19T23:41:40.331Z,100950.09
2023-05-19T23:44:09.376Z,100948.81
2023-05-19T23:46:37.720Z,100944.66
2023-05-19T23:49:07.095Z,100952.91
2023-05-19T23:51:36.370Z,100948.22
2023-05-19T23:54:04.620Z,100955.50
2023-05-19T23:56:33.821Z,100949.78
2023-05-19T23:59:02.740Z,100954.59
